createdAt,value
2022-08-31T00:00:09.432Z,0.93
2022-08-31T00:02:54.503Z,1.15
2022-08-31T00:05:21.789Z,1.10
2022-08-31T00:07:48.523Z,1.30
2022-08-31T00:10:16.209Z,1.27
2022-08-31T00:12:44.906Z,1.08
2022-08-31T00:15:16.689Z,1.30
2022-08-31T00:17:43.468Z,1.20
2022-08-31T00:20:32.358Z,1.23
2022-08-31T00:23:04.001Z,1.30
2022-08-31T00:25:31.963Z,1.38
2022-08-31T00:30:25.746Z,1.20
2022-08-31T00:32:52.534Z,1.40
2022-08-31T00:35:19.598Z,1.13
2022-08-31T00:37:46.236Z,1.40
2022-08-31T00:40:13.619Z,1.10
2022-08-31T00:42:40.791Z,1.30
2022-08-31T00:45:08.898Z,1.48
2022-08-31T00:47:35.897Z,1.60
2022-08-31T00:50:06.697Z,1.40
2022-08-31T00:52:38.997Z,1.50
2022-08-31T00:55:31.844Z,1.40
2022-08-31T00:58:02.759Z,1.60
2022-08-31T01:00:30.594Z,1.38
2022-08-31T01:05:25.111Z,1.35
2022-08-31T01:07:52.797Z,1.33
2022-08-31T01:10:22.083Z,1.70
2022-08-31T01:12:52.567Z,1.45
2022-08-31T01:15:20.330Z,1.60
2022-08-31T01:17:49.131Z,1.52
2022-08-31T01:20:33.296Z,1.70
2022-08-31T01:23:02.897Z,1.88
2022-08-31T01:25:33.334Z,1.70
2022-08-31T01:28:03.833Z,1.58
2022-08-31T01:30:30.786Z,1.77
2022-08-31T01:32:57.533Z,1.50
2022-08-31T01:35:24.223Z,1.48
2022-08-31T01:37:51.919Z,2.00
2022-08-31T01:40:18.745Z,1.50
2022-08-31T01:42:45.458Z,1.70
2022-08-31T01:45:12.762Z,1.70
2022-08-31T01:47:40.395Z,1.23
2022-08-31T01:50:08.163Z,1.70
2022-08-31T01:52:37.720Z,1.90
2022-08-31T01:55:07.413Z,1.95
2022-08-31T01:57:34.786Z,1.70
2022-08-31T02:00:29.226Z,1.70
2022-08-31T02:02:59.742Z,1.63
2022-08-31T02:05:28.280Z,1.98
2022-08-31T02:07:56.245Z,1.90
2022-08-31T02:10:24.218Z,1.63
2022-08-31T02:12:51.649Z,1.77
2022-08-31T02:15:29.616Z,1.70
2022-08-31T02:17:56.499Z,1.80
2022-08-31T02:20:23.634Z,1.73
2022-08-31T02:22:50.824Z,1.70
2022-08-31T02:25:18.162Z,2.00
2022-08-31T02:27:45.534Z,1.80
2022-08-31T02:30:16.696Z,1.70
2022-08-31T02:32:43.759Z,1.75
2022-08-31T02:35:11.791Z,1.50
2022-08-31T02:37:38.600Z,1.90
2022-08-31T02:40:10.561Z,1.77
2022-08-31T02:42:53.167Z,1.80
2022-08-31T02:45:24.510Z,1.80
2022-08-31T02:47:52.345Z,1.70
2022-08-31T02:50:37.878Z,1.90
2022-08-31T02:53:05.309Z,2.30
2022-08-31T02:55:32.075Z,2.15
2022-08-31T02:58:00.078Z,1.73
2022-08-31T03:00:26.709Z,1.70
2022-08-31T03:02:54.967Z,1.98
2022-08-31T03:05:22.811Z,1.60
2022-08-31T03:07:50.311Z,2.00
2022-08-31T03:10:21.259Z,1.58
2022-08-31T03:12:50.048Z,1.80
2022-08-31T03:17:45.918Z,2.15
2022-08-31T03:20:13.811Z,1.80
2022-08-31T03:25:13.250Z,1.60
2022-08-31T03:27:40.662Z,1.80
2022-08-31T03:30:11.499Z,1.90
2022-08-31T03:32:41.250Z,2.00
2022-08-31T03:35:08.712Z,1.90
2022-08-31T03:37:37.252Z,1.98
2022-08-31T03:40:04.918Z,1.80
2022-08-31T03:42:32.805Z,1.80
2022-08-31T03:45:00.477Z,1.80
2022-08-31T03:47:30.403Z,2.10
2022-08-31T03:49:57.981Z,1.80
2022-08-31T03:52:29.018Z,1.75
2022-08-31T03:55:01.124Z,2.03
2022-08-31T03:57:28.278Z,2.25
2022-08-31T03:59:57.572Z,2.10
2022-08-31T04:02:43.784Z,1.67
2022-08-31T04:05:45.771Z,1.90
2022-08-31T04:08:39.419Z,2.25
2022-08-31T04:11:45.050Z,1.85
2022-08-31T04:14:31.967Z,2.20
2022-08-31T04:17:21.682Z,2.00
2022-08-31T04:19:55.434Z,2.10
2022-08-31T04:25:21.414Z,2.20
2022-08-31T04:27:49.746Z,1.90
2022-08-31T04:30:16.663Z,2.10
2022-08-31T04:32:43.366Z,2.00
2022-08-31T04:35:10.161Z,2.00
2022-08-31T04:37:46.357Z,2.20
2022-08-31T04:40:19.796Z,1.92
2022-08-31T04:42:47.897Z,1.98
2022-08-31T04:45:16.811Z,2.22
2022-08-31T04:47:44.070Z,2.25
2022-08-31T04:50:12.574Z,2.13
2022-08-31T04:53:03.710Z,2.30
2022-08-31T04:55:32.001Z,2.15
2022-08-31T04:57:58.904Z,1.92
2022-08-31T05:00:25.925Z,2.00
2022-08-31T05:03:11.135Z,2.20
2022-08-31T05:05:39.677Z,2.30
2022-08-31T05:08:06.914Z,2.22
2022-08-31T05:10:34.555Z,2.17
2022-08-31T05:13:02.441Z,2.15
2022-08-31T05:15:30.819Z,2.22
2022-08-31T05:17:57.514Z,2.10
2022-08-31T05:20:25.205Z,2.53
2022-08-31T05:22:51.905Z,2.40
2022-08-31T05:25:18.669Z,1.88
2022-08-31T05:27:45.363Z,2.22
2022-08-31T05:30:12.807Z,2.30
2022-08-31T05:32:42.097Z,2.40
2022-08-31T05:35:10.879Z,2.08
2022-08-31T05:37:39.447Z,2.10
2022-08-31T05:40:09.225Z,2.05
2022-08-31T05:42:36.200Z,2.10
2022-08-31T05:45:02.996Z,2.20
2022-08-31T05:47:30.506Z,2.20
2022-08-31T05:49:57.526Z,2.20
2022-08-31T05:52:24.964Z,3.53
2022-08-31T05:54:53.952Z,7.68
2022-08-31T05:57:24.479Z,8.87
2022-08-31T05:59:53.173Z,14.43
2022-08-31T06:04:48.541Z,1.85
2022-08-31T06:07:20.095Z,1.80
2022-08-31T06:09:53.580Z,1.83
2022-08-31T06:12:25.406Z,1.67
2022-08-31T06:14:53.507Z,1.77
2022-08-31T06:17:20.709Z,1.90
2022-08-31T06:19:47.838Z,1.75
2022-08-31T06:22:14.625Z,1.65
2022-08-31T06:24:43.100Z,1.63
2022-08-31T06:27:10.261Z,1.63
2022-08-31T06:29:37.457Z,1.83
2022-08-31T06:32:08.282Z,1.70
2022-08-31T06:34:39.081Z,1.70
2022-08-31T06:37:07.689Z,1.60
2022-08-31T06:39:57.856Z,1.75
2022-08-31T06:42:35.779Z,3.75
2022-08-31T06:45:04.242Z,1.70
2022-08-31T06:47:53.865Z,1.35
2022-08-31T06:50:20.501Z,1.30
2022-08-31T06:52:49.140Z,1.30
2022-08-31T06:55:24.707Z,1.55
2022-08-31T06:58:10.151Z,1.63
2022-08-31T07:00:49.431Z,1.38
2022-08-31T07:03:48.924Z,1.30
2022-08-31T07:06:26.639Z,1.33
2022-08-31T07:08:57.327Z,1.13
2022-08-31T07:11:35.094Z,3.67
2022-08-31T07:14:03.293Z,2.03
2022-08-31T07:16:31.178Z,1.45
2022-08-31T07:19:01.139Z,1.50
2022-08-31T07:21:30.901Z,1.30
2022-08-31T07:24:00.955Z,1.33
2022-08-31T07:26:36.278Z,1.48
2022-08-31T07:29:06.039Z,1.45
2022-08-31T07:31:44.739Z,1.40
2022-08-31T07:34:14.179Z,1.40
2022-08-31T07:37:16.272Z,1.33
2022-08-31T07:40:07.155Z,1.45
2022-08-31T07:42:44.439Z,1.23
2022-08-31T07:45:22.838Z,1.23
2022-08-31T07:47:53.035Z,1.35
2022-08-31T07:50:26.794Z,2.47
2022-08-31T07:53:22.454Z,1.83
2022-08-31T07:56:01.729Z,1.85
2022-08-31T07:58:40.196Z,1.67
2022-08-31T08:01:07.605Z,1.85
2022-08-31T08:03:34.652Z,1.70
2022-08-31T08:06:39.711Z,1.42
2022-08-31T08:09:24.163Z,1.55
2022-08-31T08:12:06.420Z,2.38
2022-08-31T08:14:40.345Z,1.90
2022-08-31T08:17:27.346Z,3.90
2022-08-31T08:20:08.454Z,2.08
2022-08-31T08:22:54.011Z,1.73
2022-08-31T08:25:30.227Z,2.05
2022-08-31T08:28:22.733Z,1.60
2022-08-31T08:31:01.146Z,1.55
2022-08-31T08:33:31.579Z,1.60
2022-08-31T08:36:03.767Z,1.45
2022-08-31T08:38:31.481Z,1.50
2022-08-31T08:41:02.136Z,1.63
2022-08-31T08:43:33.312Z,1.70
2022-08-31T08:46:19.767Z,1.60
2022-08-31T08:48:55.411Z,1.70
2022-08-31T08:51:30.890Z,1.52
2022-08-31T08:54:09.593Z,1.58
2022-08-31T08:56:42.138Z,1.70
2022-08-31T08:59:17.158Z,1.55
2022-08-31T09:01:49.629Z,5.50
2022-08-31T09:04:39.812Z,3.00
2022-08-31T09:07:42.959Z,1.73
2022-08-31T09:10:28.683Z,1.98
2022-08-31T09:13:21.066Z,1.67
2022-08-31T09:16:07.816Z,1.80
2022-08-31T09:18:40.757Z,1.90
2022-08-31T09:21:29.590Z,1.83
2022-08-31T09:24:02.079Z,1.63
2022-08-31T09:26:47.471Z,1.55
2022-08-31T09:29:32.140Z,1.58
2022-08-31T09:32:07.230Z,1.60
2022-08-31T09:34:41.080Z,4.97
2022-08-31T09:37:46.071Z,3.00
2022-08-31T09:40:24.326Z,1.45
2022-08-31T09:43:25.219Z,2.03
2022-08-31T09:46:04.050Z,2.03
2022-08-31T09:48:48.719Z,1.98
2022-08-31T09:51:36.665Z,2.08
2022-08-31T09:54:33.791Z,1.83
2022-08-31T09:57:03.895Z,2.00
2022-08-31T09:59:44.422Z,2.50
2022-08-31T10:02:22.181Z,2.22
2022-08-31T10:05:06.579Z,2.00
2022-08-31T10:07:43.222Z,1.90
2022-08-31T10:10:27.936Z,2.33
2022-08-31T10:13:03.745Z,1.90
2022-08-31T10:15:43.378Z,1.85
2022-08-31T10:18:46.491Z,1.60
2022-08-31T10:21:21.445Z,1.80
2022-08-31T10:23:57.268Z,2.30
2022-08-31T10:26:36.576Z,2.25
2022-08-31T10:29:16.750Z,2.00
2022-08-31T10:31:54.906Z,2.65
2022-08-31T10:34:49.954Z,2.28
2022-08-31T10:37:36.721Z,2.20
2022-08-31T10:40:16.328Z,2.67
2022-08-31T10:42:50.263Z,3.83
2022-08-31T10:45:22.362Z,3.17
2022-08-31T10:47:52.933Z,2.58
2022-08-31T10:50:30.576Z,2.40
2022-08-31T10:55:58.576Z,2.40
2022-08-31T10:58:58.794Z,2.35
2022-08-31T11:01:44.223Z,3.20
2022-08-31T11:04:29.514Z,2.42
2022-08-31T11:07:17.617Z,2.67
2022-08-31T11:10:12.186Z,2.50
2022-08-31T11:12:45.697Z,2.40
2022-08-31T11:15:28.851Z,2.70
2022-08-31T11:18:28.779Z,2.67
2022-08-31T11:21:09.976Z,2.33
2022-08-31T11:23:53.751Z,2.35
2022-08-31T11:27:02.775Z,2.45
2022-08-31T11:29:32.250Z,2.45
2022-08-31T11:32:11.613Z,4.28
2022-08-31T11:34:51.485Z,2.78
2022-08-31T11:37:56.016Z,2.25
2022-08-31T11:41:05.993Z,2.80
2022-08-31T11:43:32.602Z,2.38
2022-08-31T11:46:26.865Z,2.65
2022-08-31T11:48:54.564Z,7.95
2022-08-31T11:51:40.917Z,8.15
2022-08-31T11:54:42.013Z,2.78
2022-08-31T11:57:15.753Z,2.75
2022-08-31T11:59:47.798Z,3.15
2022-08-31T12:02:20.847Z,2.90
2022-08-31T12:04:56.097Z,2.72
2022-08-31T12:07:35.779Z,2.88
2022-08-31T12:10:14.441Z,2.60
2022-08-31T12:13:09.503Z,3.05
2022-08-31T12:15:52.065Z,2.70
2022-08-31T12:18:30.917Z,3.80
2022-08-31T12:21:41.315Z,3.78
2022-08-31T12:24:36.643Z,3.40
2022-08-31T12:27:40.950Z,2.70
2022-08-31T12:30:26.323Z,2.67
2022-08-31T12:33:09.812Z,3.00
2022-08-31T12:35:37.571Z,2.88
2022-08-31T12:38:11.058Z,2.67
2022-08-31T12:40:46.853Z,2.70
2022-08-31T12:43:25.382Z,9.65
2022-08-31T12:46:17.025Z,2.95
2022-08-31T12:48:51.305Z,2.78
2022-08-31T12:51:55.039Z,2.83
2022-08-31T12:54:43.475Z,2.33
2022-08-31T12:57:15.922Z,2.50
2022-08-31T13:00:00.688Z,2.30
2022-08-31T13:02:32.867Z,2.22
2022-08-31T13:05:00.346Z,2.78
2022-08-31T13:07:33.462Z,3.38
2022-08-31T13:10:11.121Z,3.03
2022-08-31T13:12:38.292Z,5.75
2022-08-31T13:15:20.579Z,4.63
2022-08-31T13:17:47.562Z,3.28
2022-08-31T13:20:19.066Z,4.20
2022-08-31T13:22:55.025Z,3.70
2022-08-31T13:25:51.033Z,4.70
2022-08-31T13:28:26.192Z,4.20
2022-08-31T13:31:03.638Z,5.15
2022-08-31T13:33:40.464Z,5.13
2022-08-31T13:36:09.695Z,6.22
2022-08-31T13:38:46.387Z,11.38
2022-08-31T13:41:38.235Z,5.13
2022-08-31T13:44:13.094Z,5.25
2022-08-31T13:47:00.154Z,6.90
2022-08-31T13:49:35.370Z,9.27
2022-08-31T13:52:17.669Z,10.20
2022-08-31T13:54:44.424Z,6.43
2022-08-31T13:57:19.751Z,6.80
2022-08-31T13:59:47.802Z,7.75
2022-08-31T14:02:19.423Z,6.50
2022-08-31T14:04:57.348Z,5.32
2022-08-31T14:07:31.179Z,6.85
2022-08-31T14:09:59.434Z,5.80
2022-08-31T14:12:36.240Z,6.07
2022-08-31T14:15:08.452Z,6.50
2022-08-31T14:17:40.900Z,6.15
2022-08-31T14:20:33.872Z,5.60
2022-08-31T14:23:42.256Z,5.20
2022-08-31T14:26:18.198Z,5.43
2022-08-31T14:28:50.954Z,4.82
2022-08-31T14:31:26.690Z,5.57
2022-08-31T14:34:25.909Z,5.25
2022-08-31T14:37:08.123Z,8.73
2022-08-31T14:39:47.269Z,6.43
2022-08-31T14:42:18.253Z,6.90
2022-08-31T14:44:53.653Z,7.00
2022-08-31T14:47:21.402Z,6.45
2022-08-31T14:49:49.170Z,5.72
2022-08-31T14:52:16.092Z,5.85
2022-08-31T14:54:43.747Z,5.97
2022-08-31T14:57:32.601Z,5.93
2022-08-31T15:00:02.219Z,5.90
2022-08-31T15:02:33.362Z,5.57
2022-08-31T15:05:07.260Z,5.75
2022-08-31T15:07:36.605Z,5.40
2022-08-31T15:10:06.776Z,4.90
2022-08-31T15:12:34.498Z,4.55
2022-08-31T15:15:01.442Z,4.10
2022-08-31T15:17:30.581Z,3.95
2022-08-31T15:19:57.400Z,3.75
2022-08-31T15:22:26.273Z,3.50
2022-08-31T15:24:54.172Z,3.53
2022-08-31T15:27:22.450Z,3.22
2022-08-31T15:29:56.105Z,3.17
2022-08-31T15:32:22.874Z,3.33
2022-08-31T15:34:58.989Z,3.60
2022-08-31T15:37:31.577Z,3.78
2022-08-31T15:40:00.734Z,3.38
2022-08-31T15:42:29.388Z,3.97
2022-08-31T15:44:56.873Z,3.70
2022-08-31T15:47:44.660Z,3.33
2022-08-31T15:50:11.534Z,3.15
2022-08-31T15:52:43.853Z,3.35
2022-08-31T15:55:23.528Z,3.28
2022-08-31T15:57:54.154Z,4.00
2022-08-31T16:00:23.558Z,3.90
2022-08-31T16:02:55.139Z,4.80
2022-08-31T16:05:23.299Z,4.57
2022-08-31T16:07:52.592Z,4.57
2022-08-31T16:10:20.281Z,4.47
2022-08-31T16:12:51.967Z,5.50
2022-08-31T16:17:50.722Z,4.95
2022-08-31T16:22:44.645Z,4.80
2022-08-31T16:25:12.966Z,4.70
2022-08-31T16:27:40.912Z,4.40
2022-08-31T16:30:13.069Z,3.95
2022-08-31T16:32:40.262Z,3.80
2022-08-31T16:35:07.430Z,4.07
2022-08-31T16:40:02.466Z,3.22
2022-08-31T16:42:29.155Z,3.63
2022-08-31T16:45:01.241Z,3.85
2022-08-31T16:47:29.437Z,3.90
2022-08-31T16:49:56.869Z,4.43
2022-08-31T16:52:27.311Z,4.70
2022-08-31T16:54:55.902Z,4.28
2022-08-31T16:57:27.143Z,4.15
2022-08-31T16:59:56.113Z,4.20
2022-08-31T17:02:24.330Z,3.25
2022-08-31T17:04:53.034Z,2.80
2022-08-31T17:07:22.711Z,2.58
2022-08-31T17:09:49.402Z,2.78
2022-08-31T17:12:19.201Z,2.75
2022-08-31T17:14:51.313Z,2.33
2022-08-31T17:17:22.583Z,2.38
2022-08-31T17:19:49.952Z,3.20
2022-08-31T17:22:25.546Z,3.13
2022-08-31T17:24:56.364Z,3.20
2022-08-31T17:27:24.635Z,11.23
2022-08-31T17:29:53.960Z,8.65
2022-08-31T17:32:24.130Z,3.47
2022-08-31T17:34:51.999Z,2.83
2022-08-31T17:37:28.374Z,2.95
2022-08-31T17:39:55.825Z,2.78
2022-08-31T17:42:26.826Z,2.50
2022-08-31T17:44:55.193Z,2.60
2022-08-31T17:47:23.683Z,6.65
2022-08-31T17:49:50.951Z,15.73
2022-08-31T17:54:47.732Z,2.17
2022-08-31T17:57:16.536Z,2.35
2022-08-31T17:59:48.783Z,2.03
2022-08-31T18:02:23.115Z,2.10
2022-08-31T18:04:49.919Z,2.25
2022-08-31T18:07:17.485Z,2.53
2022-08-31T18:12:12.973Z,2.08
2022-08-31T18:14:39.757Z,2.03
2022-08-31T18:17:08.629Z,2.30
2022-08-31T18:19:36.478Z,2.00
2022-08-31T18:22:04.127Z,1.95
2022-08-31T18:27:07.037Z,1.58
2022-08-31T18:29:36.866Z,1.60
2022-08-31T18:32:05.328Z,1.60
2022-08-31T18:34:36.189Z,1.63
2022-08-31T18:37:03.299Z,1.17
2022-08-31T18:39:51.872Z,1.58
2022-08-31T18:42:38.743Z,1.73
2022-08-31T18:45:15.977Z,1.30
2022-08-31T18:47:43.328Z,1.35
2022-08-31T18:50:10.480Z,7.32
2022-08-31T18:52:40.280Z,1.90
2022-08-31T18:55:12.640Z,1.20
2022-08-31T18:57:48.811Z,1.35
2022-08-31T19:00:17.718Z,1.23
2022-08-31T19:02:45.472Z,1.33
2022-08-31T19:10:12.891Z,1.30
2022-08-31T19:12:42.514Z,1.40
2022-08-31T19:15:11.686Z,1.17
2022-08-31T19:17:40.092Z,1.10
2022-08-31T19:20:10.225Z,1.50
2022-08-31T19:22:37.855Z,1.42
2022-08-31T19:25:07.063Z,1.10
2022-08-31T19:27:35.225Z,1.17
2022-08-31T19:30:05.868Z,1.30
2022-08-31T19:32:33.637Z,1.30
2022-08-31T19:37:27.673Z,1.10
2022-08-31T19:39:54.527Z,1.10
2022-08-31T19:42:39.700Z,1.00
2022-08-31T19:45:23.584Z,1.17
2022-08-31T19:47:50.969Z,1.00
2022-08-31T19:50:17.704Z,1.30
2022-08-31T19:52:44.763Z,0.95
2022-08-31T19:55:11.901Z,1.35
2022-08-31T19:57:39.837Z,1.50
2022-08-31T20:00:09.867Z,1.17
2022-08-31T20:02:37.182Z,1.50
2022-08-31T20:05:06.291Z,1.30
2022-08-31T20:07:35.056Z,7.00
2022-08-31T20:10:03.953Z,6.07
2022-08-31T20:12:30.605Z,1.63
2022-08-31T20:14:57.508Z,1.38
2022-08-31T20:17:24.204Z,1.43
2022-08-31T20:19:50.982Z,1.20
2022-08-31T20:22:17.956Z,1.05
2022-08-31T20:24:45.181Z,1.20
2022-08-31T20:27:16.429Z,1.15
2022-08-31T20:29:45.285Z,1.40
2022-08-31T20:32:12.033Z,1.23
2022-08-31T20:34:38.688Z,1.20
2022-08-31T20:37:05.963Z,1.25
2022-08-31T20:39:35.245Z,1.10
2022-08-31T20:42:03.215Z,1.23
2022-08-31T20:44:33.612Z,1.05
2022-08-31T20:47:22.696Z,1.33
2022-08-31T20:50:01.418Z,1.13
2022-08-31T20:52:31.759Z,1.02
2022-08-31T20:55:02.293Z,1.38
2022-08-31T20:57:31.959Z,1.25
2022-08-31T21:00:00.399Z,1.40
2022-08-31T21:02:27.118Z,1.13
2022-08-31T21:04:53.769Z,1.05
2022-08-31T21:07:23.093Z,1.10
2022-08-31T21:09:51.100Z,1.20
2022-08-31T21:12:18.598Z,1.10
2022-08-31T21:14:46.170Z,1.20
2022-08-31T21:17:15.940Z,0.82
2022-08-31T21:19:43.684Z,3.53
2022-08-31T21:22:14.645Z,7.35
2022-08-31T21:24:43.405Z,1.35
2022-08-31T21:27:13.655Z,1.10
2022-08-31T21:29:40.849Z,0.98
2022-08-31T21:32:10.084Z,1.02
2022-08-31T21:34:37.807Z,1.20
2022-08-31T21:37:05.227Z,1.00
2022-08-31T21:39:32.476Z,1.13
2022-08-31T21:41:59.858Z,1.00
2022-08-31T21:44:26.625Z,1.00
2022-08-31T21:46:53.513Z,0.90
2022-08-31T21:49:20.996Z,1.02
2022-08-31T21:51:52.148Z,0.90
2022-08-31T21:54:21.388Z,0.90
2022-08-31T21:56:51.412Z,0.95
2022-08-31T21:59:20.399Z,0.80
2022-08-31T22:01:47.953Z,1.00
2022-08-31T22:04:16.245Z,0.80
2022-08-31T22:06:43.602Z,0.90
2022-08-31T22:09:15.776Z,0.93
2022-08-31T22:11:46.073Z,0.80
2022-08-31T22:14:17.738Z,0.80
2022-08-31T22:16:49.237Z,0.90
2022-08-31T22:19:20.927Z,4.03
2022-08-31T22:21:51.128Z,12.45
2022-08-31T22:24:26.839Z,1.15
2022-08-31T22:26:54.044Z,0.88
2022-08-31T22:29:24.058Z,1.10
2022-08-31T22:31:52.948Z,0.90
2022-08-31T22:34:21.104Z,0.80
2022-08-31T22:36:52.176Z,0.80
2022-08-31T22:39:26.333Z,0.98
2022-08-31T22:41:53.476Z,0.98
2022-08-31T22:44:25.183Z,1.27
2022-08-31T22:46:53.388Z,0.80
2022-08-31T22:49:20.121Z,0.70
2022-08-31T22:51:48.236Z,0.70
2022-08-31T22:54:17.748Z,0.90
2022-08-31T22:56:45.039Z,0.90
2022-08-31T22:59:18.277Z,1.08
2022-08-31T23:01:53.411Z,0.70
2022-08-31T23:04:22.203Z,0.60
2022-08-31T23:06:51.159Z,1.05
2022-08-31T23:09:21.189Z,0.88
2022-08-31T23:11:49.393Z,0.85
2022-08-31T23:14:16.299Z,0.57
2022-08-31T23:16:45.535Z,0.70
2022-08-31T23:19:21.700Z,0.80
2022-08-31T23:21:56.723Z,0.77
2022-08-31T23:24:28.694Z,0.80
2022-08-31T23:27:04.365Z,0.80
2022-08-31T23:29:47.086Z,0.85
2022-08-31T23:32:19.347Z,0.95
2022-08-31T23:34:50.127Z,0.70
2022-08-31T23:37:17.915Z,1.00
2022-08-31T23:39:46.540Z,0.73
2022-08-31T23:42:16.601Z,0.80
2022-08-31T23:44:46.417Z,0.80
2022-08-31T23:47:20.308Z,0.90
2022-08-31T23:49:50.656Z,0.70
2022-08-31T23:52:21.451Z,0.73
2022-08-31T23:54:52.211Z,0.73
2022-08-31T23:57:33.021Z,0.80
